Bear Creek, Alabama
Current Conditions -  °F | °C
As of 3:56 AM on Saturday 29 Nov 2014 (Local Time) from K1M4 Reporting Station
Clear Clear  
Wind Chill: 34°   Ceiling: Unl
Heat Index: 38°   Visibility: 10mi
Dew Point: 27°   Wind: 5mph
Humidity: 65%   Direction: 180°S
Pressure: 30.2"   Gusts: NA
Location:  34.27°N, 87.7°W
Report Text: K1M4 290956Z AUTO 18004KT 10SM CLR 03/M03 A3020 RMK AO2 T00331027 SLP236
Loading
Personal Weather Stations






























Interactive Weather Map New forecast layout! Learn more

10-Day Weather Forecast

Advertisements
Track Severe Weather on mobile